Ana Sayfa
METAR-TAF:

METAR-TAF

Havaalanları :

Fiumicino

Roma-Fiumicino, İtalya

Enlem: 41-48N, Boylam: 012-14E, yükseklik: 2 m

Güncel hava durumu gözlemi

Rapor saat 02:50 UTC de 37 dakika önce yapıldı.
Rüzgar kuzeydan 14 kt
Sıcaklık 15°C
Nem 63%
Basınç 1016 hPa
Görüş mesafesi 10 km veya daha fazla
1500 m altında bulut yok ve kümülonimbus yok

METAR: LIRF 230250Z 01014KT CAVOK 15/08 Q1016 NOSIG

Saat: 05:27 (03:27 UTC)

Tahmin

Rapor saat 23:00 UTC de 4 saat ve 27 dakika önce yapıldı.
Ayın 23'si saat 00 UTC'den ayın 24'si saat 06 UTC'ye kadar geçerli Tahmin
Rüzgar kuzey/kuzeydoğudan 16 kt
Görüş mesafesi 10 km veya daha fazla
1500 m altında bulut yok ve kümülonimbus yok

TAF: LIRF 222300Z 2300/2406 02016KT CAVOK

4.000'den fazla havaalanı için hava durumu gözlemleri ve tahminleri (METAR ve TAF raporları).

Kullanılabilir istasyonlar harita üzerinde sarı ve kırmızı noktalarla gösterilir.

İstasyonun adını görmek için fareyi noktanın üzerinde gezdirin.

Sonrasında hava gözlem ve tahminlerini görmek için tıklayın.

Haritayı değiştirmek için: yaklaştırmak için siyah artı işaretli yeşil düğmeye ve uzaklaştırmak için de eksi işaretli düğmeye hızla tıklayın; bitişik haritalar için yeşil okları kullanın.


METAR-TAF: